Terminal Aerodrome Forecast
Issued by NWS

Home | Current Version | Previous Version | Text Only | Print | Product List | Glossary Off
Versions: 1 2 3 4 5 6 7 8 9 10 11 12 13 14 15 16 17 18 19 20 21 22 23 24 25 26

673
FTUS43 KLOT 212338
TAFORD
TAF
KORD 212338Z 2200/2306 VRB04KT 3SM BR VCSH FEW008 BKN016 BKN035
     FM220100 05004KT 3SM BR BKN008 BKN020
     FM220300 35005KT 1SM BR OVC004
      TEMPO 2209/2213 1/2SM FG VV002
     FM221500 33007KT P6SM BKN006 OVC013
     FM221800 35007KT P6SM BKN015
     FM222100 02008KT P6SM BKN023
     FM222300 06008KT P6SM SCT035=

USA.gov is the U.S. government's official web portal to all federal, state and local government web resources and services.